Language selection

Features

My Weather Profile Weather Topics  | 

Southwest Coast: Past 24 Hour Conditions

 

Cartwright Airport

11:00 PM AST 13 December 2019
Disclaimer

This table is a summary of hourly weather conditions for the past 24 hours.
Please note that these observations might not always be representative of weather conditions over their associated marine area.

Date / Time
(AST)
Wind(knots) Conditions Visibility(km) Pressure(kPa) Air tempC) Relative humidity(%) Dew pointC) Wind Chill
13 December 2019
23:00 WSW 11 gust 19 Clear 16 103.0 -18 70 -22 -28
22:00 SW 11 gust 17 Clear 16 103.0 -18 72 -22 -28
21:00 SSW 7 gust 20 Clear 16 103.0 -18 70 -22 -25
20:00 WSW 12 gust 19 Clear 16 102.9 -17 75 -20 -27
19:00 WSW 11 gust 21 Clear 16 102.9 -16 69 -21 -26
18:00 W 13 gust 20 Clear 16 102.9 -16 64 -21 -26
17:00 W 15 gust 24 Clear 16 102.8 -16 64 -21 -26
16:00 W 10 gust 18 Clear 16 102.8 -16 64 -21 -25
15:00 SW 3 Sunny 16 102.7 -15 55 -22 -19
14:00 WNW 12 gust 23 Sunny 16 102.6 -15 56 -22 -25
13:00 WSW 19 gust 28 Sunny 16 102.5 -16 56 -22 -27
12:00 WSW 14 gust 24 Sunny 16 102.4 -15 58 -22 -25
11:00 WSW 17 gust 25 Sunny 16 102.3 -16 60 -22 -27
10:00 WSW 16 gust 32 Sunny 16 102.3 -15 50 -23 -26
9:00 WSW 19 gust 31 Mostly Cloudy 16 102.1 -16 56 -23 -28
8:00 WSW 19 gust 31 Cloudy 16 102.0 -17 63 -23 -29
7:00 WSW 20 gust 31 Partly Cloudy 16 101.9 -17 65 -22 -30
6:00 WSW 22 gust 33 Clear 16 101.8 -18 67 -23 -32
5:00 SW 19 gust 37 Clear 16 101.7 -19 67 -24 -32
4:00 WSW 19 gust 32 Clear 16 101.7 -19 68 -24 -32
3:00 SW 20 gust 33 Mainly Clear 16 101.7 -19 67 -24 -33
2:00 SW 17 gust 35 Partly Cloudy 16 101.6 -19 66 -24 -32
1:00 SW 18 gust 31 Clear 16 101.6 -18 69 -23 -31
0:00 SW 17 gust 28 Clear 16 101.6 -17 71 -22 -30
12 December 2019
23:00 SW 15 gust 26 Clear 16 101.6 -17 72 -21 -29

Zoom-in to make a selection

Map of Atlantic - Newfoundland marine weather areas Banquereau - 44139 Blanc-Sablon Airport Cap Whittle Chevery Natashquan Airport Heath Point Îles de la Madeleine Airport Miscou Island Eskasoni (First Nations) Grand Étang Ingonish Beach North Mountain St.Paul Island J.A. Douglas McCurdy Sydney Airport Charlottetown Airport East Point North Cape Argentia Bonavista Burgeo Cape Race Corner Brook Daniel's Harbour Englee Ferolle Point La Scie Port aux Basques Rocky Harbour Sagona Island St. Anthony Airport St. John's Int'l Airport St. Lawrence Stephenville Airport Twillingate Winterland Branch Hill Wreckhouse Grates Cove Pool's Island Marticot Island Long Pond Cartwright Airport Mary's Harbour
Legend:
buoy Buoy
land station Land Station

Atlantic - Newfoundland Area

Another Region

What we are doing

Date modified: